MET'MAP v2.0
soon released !

Expected late october,
this new version will be
more efficient, smarter,
and hosted on a brand new
server x3 powerfull...
...and still free !


Not compatible ?
Try the mobile version !

LOG IN : | Subscribe | Disclaimer | Who is Orbifly ? |
ICAO code :
Legend : VFR Marginal VFR IFR Intensive IFR Very Intensive IFR
Visi :
Ceiling :
>= 8 km
>= 3000ft
5 to 8 km
1000 to 3000 ft
1500m to 5 km
500 to 1000 ft
800 to 1500m
200 to 500 ft
< 800m
< 200 ft

METAR - EGGP Liverpool John Lennon - 01 Jun 2020 22:08 UTC - Data Source NOAA   


- Airport Elevation : 80 ft
- IATA code : LPL
- No reported NOTAMs.


EGGP - Liverpool John Lennon

Latest METAR recorded : 2015/08/11 07:50 EGGP 110750Z 28009KT 9999 FEW023 16/11 Q1019
TAF TAF EGGP
Valid from the 01 at 18:00 until the 02 at 18:00 UTC


011654Z 0118/0218 28010KT 9999 FEW045
BECMG 0118/0121 VRB04KT
BECMG 0212/0215 29010KT

Source NOAA
ATIS : +44 151 907 2000 (option 5 or ext 5150)
Met : +44 871 750 5150


MET'MAP, your aeronautical weather chart ! - Copyright ORBIFLY December 2007

Programming & Development : Alexandra Zaïnal
Co-Developer : Marc-Olivier Méhu
Technical & hardware support : Manuel Goepfert
Concept & Financing : Baudouin d'Aumeries